createdAt,value
2022-10-17T00:01:04.602Z,36.67
2022-10-17T00:03:32.651Z,29.42
2022-10-17T00:06:05.087Z,33.33
2022-10-17T00:08:32.802Z,31.45
2022-10-17T00:11:03.974Z,32.20
2022-10-17T00:16:01.236Z,33.35
2022-10-17T00:18:28.764Z,35.53
2022-10-17T00:20:56.506Z,36.00
2022-10-17T00:23:24.421Z,28.75
2022-10-17T00:26:00.337Z,29.77
2022-10-17T00:28:28.178Z,30.13
2022-10-17T00:31:06.199Z,30.83
2022-10-17T00:33:35.548Z,29.98
2022-10-17T00:36:19.119Z,27.67
2022-10-17T00:38:48.734Z,26.48
2022-10-17T00:41:18.980Z,33.47
2022-10-17T00:44:03.347Z,27.60
2022-10-17T00:46:40.166Z,25.42
2022-10-17T00:49:19.300Z,25.33
2022-10-17T00:52:15.048Z,25.35
2022-10-17T00:55:01.004Z,24.77
2022-10-17T00:57:50.040Z,25.35
2022-10-17T01:03:30.491Z,27.10
2022-10-17T01:05:58.357Z,24.55
2022-10-17T01:08:26.648Z,26.73
2022-10-17T01:10:54.270Z,45.67
2022-10-17T01:13:57.592Z,26.05
2022-10-17T01:16:59.518Z,31.55
2022-10-17T01:20:06.034Z,28.75
2022-10-17T01:22:44.367Z,25.50
2022-10-17T01:25:42.888Z,30.20
2022-10-17T01:28:44.258Z,22.33
2022-10-17T01:31:15.892Z,23.65
2022-10-17T01:34:01.929Z,20.70
2022-10-17T01:36:52.304Z,22.27
2022-10-17T01:39:51.396Z,36.47
2022-10-17T01:42:29.005Z,22.65
2022-10-17T01:45:24.974Z,27.95
2022-10-17T01:47:56.602Z,26.98
2022-10-17T01:53:06.879Z,29.10
2022-10-17T01:55:38.367Z,28.00
2022-10-17T01:58:27.598Z,28.30
2022-10-17T02:00:58.725Z,26.13
2022-10-17T02:03:29.039Z,28.30
2022-10-17T02:05:56.707Z,27.75
2022-10-17T02:08:42.317Z,30.13
2022-10-17T02:11:28.721Z,26.65
2022-10-17T02:14:23.058Z,25.85
2022-10-17T02:16:56.861Z,26.70
2022-10-17T02:19:30.569Z,24.30
2022-10-17T02:22:16.758Z,31.35
2022-10-17T02:24:55.091Z,27.38
2022-10-17T02:27:49.783Z,27.20
2022-10-17T02:30:33.597Z,28.83
2022-10-17T02:33:09.552Z,25.17
2022-10-17T02:35:41.309Z,22.52
2022-10-17T02:38:12.463Z,28.23
2022-10-17T02:43:08.807Z,27.25
2022-10-17T02:45:37.955Z,30.75
2022-10-17T02:48:07.537Z,27.50
2022-10-17T02:51:10.504Z,29.55
2022-10-17T02:54:12.827Z,32.13
2022-10-17T02:56:46.816Z,29.95
2022-10-17T02:59:17.943Z,31.48
2022-10-17T03:01:45.699Z,27.58
2022-10-17T03:04:15.476Z,27.38
2022-10-17T03:06:44.656Z,29.20
2022-10-17T03:09:12.528Z,26.83
2022-10-17T03:11:42.037Z,25.67
2022-10-17T03:14:10.086Z,27.15
2022-10-17T03:16:37.822Z,28.15
2022-10-17T03:19:06.040Z,24.98
2022-10-17T03:21:36.612Z,24.45
2022-10-17T03:24:04.958Z,27.27
2022-10-17T03:26:32.561Z,25.40
2022-10-17T03:29:00.162Z,23.63
2022-10-17T03:31:30.001Z,24.47
2022-10-17T03:33:58.587Z,28.60
2022-10-17T03:36:26.244Z,29.55
2022-10-17T03:38:55.250Z,32.88
2022-10-17T03:41:24.203Z,47.50
2022-10-17T03:43:54.516Z,31.33
2022-10-17T03:46:23.049Z,26.83
2022-10-17T03:48:51.177Z,22.38
2022-10-17T03:51:19.042Z,23.83
2022-10-17T03:53:52.377Z,26.70
2022-10-17T03:56:23.339Z,26.98
2022-10-17T03:58:59.783Z,23.13
2022-10-17T04:01:29.437Z,25.95
2022-10-17T04:03:58.188Z,24.02
2022-10-17T04:06:30.069Z,27.35
2022-10-17T04:08:57.983Z,32.20
2022-10-17T04:11:44.209Z,31.33
2022-10-17T04:14:12.357Z,30.45
2022-10-17T04:16:40.855Z,28.90
2022-10-17T04:19:14.764Z,32.70
2022-10-17T04:21:46.240Z,32.83
2022-10-17T04:24:15.850Z,33.22
2022-10-17T04:27:03.948Z,31.63
2022-10-17T04:32:07.612Z,29.35
2022-10-17T04:34:41.523Z,31.88
2022-10-17T04:37:09.988Z,30.42
2022-10-17T04:39:38.183Z,31.45
2022-10-17T04:42:06.176Z,30.80
2022-10-17T04:44:35.597Z,27.85
2022-10-17T04:47:03.487Z,33.20
2022-10-17T04:49:31.753Z,28.65
2022-10-17T04:52:07.459Z,32.03
2022-10-17T04:54:43.864Z,28.92
2022-10-17T04:57:13.990Z,33.35
2022-10-17T04:59:44.868Z,29.95
2022-10-17T05:02:19.314Z,29.98
2022-10-17T05:04:48.152Z,30.05
2022-10-17T05:07:16.841Z,30.95
2022-10-17T05:10:02.995Z,27.45
2022-10-17T05:12:32.681Z,31.27
2022-10-17T05:15:00.475Z,28.65
2022-10-17T05:17:29.631Z,30.60
2022-10-17T05:19:57.676Z,27.95
2022-10-17T05:22:25.598Z,28.98
2022-10-17T05:24:53.341Z,24.35
2022-10-17T05:27:21.281Z,25.80
2022-10-17T05:29:49.172Z,24.13
2022-10-17T05:32:25.801Z,27.85
2022-10-17T05:34:53.585Z,26.40
2022-10-17T05:37:23.814Z,27.45
2022-10-17T05:39:53.739Z,25.05
2022-10-17T05:42:21.576Z,23.85
2022-10-17T05:44:49.376Z,23.38
2022-10-17T05:47:19.739Z,25.20
2022-10-17T05:49:52.106Z,23.63
2022-10-17T05:52:26.632Z,26.23
2022-10-17T05:55:06.881Z,26.02
2022-10-17T05:57:34.677Z,24.60
2022-10-17T06:00:05.648Z,24.98
2022-10-17T06:02:42.399Z,26.63
2022-10-17T06:07:40.718Z,28.52
2022-10-17T06:10:09.925Z,26.40
2022-10-17T06:12:37.760Z,26.15
2022-10-17T06:15:06.001Z,25.55
2022-10-17T06:17:35.789Z,27.38
2022-10-17T06:20:03.679Z,23.77
2022-10-17T06:22:31.916Z,25.13
2022-10-17T06:25:01.597Z,27.08
2022-10-17T06:27:30.258Z,27.25
2022-10-17T06:29:58.087Z,26.02
2022-10-17T06:32:25.906Z,28.70
2022-10-17T06:34:53.835Z,22.20
2022-10-17T06:37:21.599Z,31.15
2022-10-17T06:39:49.304Z,24.90
2022-10-17T06:42:21.373Z,27.45
2022-10-17T06:45:10.345Z,27.00
2022-10-17T06:47:53.523Z,23.70
2022-10-17T06:50:47.267Z,22.63
2022-10-17T06:53:22.376Z,27.27
2022-10-17T06:55:54.577Z,25.98
2022-10-17T06:58:34.703Z,24.83
2022-10-17T07:01:14.652Z,25.23
2022-10-17T07:03:44.098Z,22.48
2022-10-17T07:06:13.449Z,22.73
2022-10-17T07:08:44.701Z,21.42
2022-10-17T07:11:18.885Z,20.52
2022-10-17T07:13:47.637Z,20.73
2022-10-17T07:16:16.641Z,22.95
2022-10-17T07:18:50.943Z,21.33
2022-10-17T07:21:19.594Z,22.60
2022-10-17T07:23:47.748Z,23.70
2022-10-17T07:26:17.301Z,22.17
2022-10-17T07:28:47.615Z,20.85
2022-10-17T07:34:04.988Z,18.98
2022-10-17T07:36:32.863Z,20.35
2022-10-17T07:39:03.665Z,20.45
2022-10-17T07:41:32.712Z,20.52
2022-10-17T07:44:00.785Z,20.58
2022-10-17T07:46:34.908Z,18.65
2022-10-17T07:49:03.019Z,19.77
2022-10-17T07:51:30.993Z,19.13
2022-10-17T07:53:58.616Z,18.88
2022-10-17T07:56:26.343Z,20.63
2022-10-17T07:58:54.336Z,19.85
2022-10-17T08:01:22.083Z,20.02
2022-10-17T08:03:50.481Z,18.40
2022-10-17T08:06:18.686Z,15.48
2022-10-17T08:08:46.608Z,19.10
2022-10-17T08:11:15.461Z,16.85
2022-10-17T08:13:43.406Z,15.77
2022-10-17T08:16:12.681Z,19.90
2022-10-17T08:18:41.977Z,16.90
2022-10-17T08:21:10.772Z,16.48
2022-10-17T08:23:38.583Z,16.42
2022-10-17T08:26:10.934Z,16.17
2022-10-17T08:28:40.743Z,16.23
2022-10-17T08:31:19.054Z,16.27
2022-10-17T08:33:48.133Z,16.05
2022-10-17T08:36:18.814Z,14.77
2022-10-17T08:38:51.655Z,15.10
2022-10-17T08:41:40.265Z,15.27
2022-10-17T08:44:16.963Z,16.17
2022-10-17T08:46:50.828Z,315.75
2022-10-17T08:49:42.259Z,195.98
2022-10-17T08:52:28.430Z,13.95
2022-10-17T08:54:56.203Z,16.40
2022-10-17T08:57:23.957Z,17.48
2022-10-17T08:59:54.039Z,15.10
2022-10-17T09:05:26.603Z,15.27
2022-10-17T09:08:15.684Z,15.65
2022-10-17T09:11:05.338Z,16.25
2022-10-17T09:13:58.905Z,14.82
2022-10-17T09:16:26.616Z,17.33
2022-10-17T09:19:03.603Z,16.15
2022-10-17T09:21:39.909Z,14.20
2022-10-17T09:24:16.177Z,16.15
2022-10-17T09:26:47.303Z,14.90
2022-10-17T09:29:21.631Z,16.42
2022-10-17T09:32:03.863Z,15.50
2022-10-17T09:34:33.155Z,15.63
2022-10-17T09:37:02.777Z,15.55
2022-10-17T09:42:02.462Z,14.70
2022-10-17T09:44:34.126Z,14.95
2022-10-17T09:47:08.207Z,15.13
2022-10-17T09:49:45.817Z,14.05
2022-10-17T09:52:26.311Z,14.40
2022-10-17T09:55:00.624Z,13.73
2022-10-17T09:57:28.525Z,14.77
2022-10-17T10:00:02.026Z,13.15
2022-10-17T10:02:31.758Z,15.57
2022-10-17T10:05:19.417Z,13.27
2022-10-17T10:08:06.042Z,14.77
2022-10-17T10:10:34.384Z,12.90
2022-10-17T10:13:20.612Z,12.98
2022-10-17T10:15:50.586Z,13.27
2022-10-17T10:18:35.619Z,13.20
2022-10-17T10:21:12.998Z,12.93
2022-10-17T10:23:45.548Z,12.77
2022-10-17T10:26:23.009Z,12.52
2022-10-17T10:28:59.232Z,12.32
2022-10-17T10:31:32.572Z,11.65
2022-10-17T10:34:03.334Z,11.85
2022-10-17T10:36:48.631Z,12.43
2022-10-17T10:39:29.181Z,13.05
2022-10-17T10:41:57.095Z,12.65
2022-10-17T10:44:28.741Z,11.90
2022-10-17T10:47:17.988Z,12.40
2022-10-17T10:49:46.213Z,11.57
2022-10-17T10:52:50.998Z,11.48
2022-10-17T10:55:34.555Z,11.48
2022-10-17T10:58:07.606Z,10.88
2022-10-17T11:00:38.598Z,11.98
2022-10-17T11:03:24.294Z,11.63
2022-10-17T11:06:19.779Z,13.00
2022-10-17T11:13:31.413Z,9.82
2022-10-17T11:22:28.947Z,10.98
2022-10-17T11:25:16.184Z,10.70
2022-10-17T11:27:45.492Z,11.50
2022-10-17T11:30:15.565Z,11.60
2022-10-17T11:32:46.701Z,11.10
2022-10-17T11:35:38.494Z,14.48
2022-10-17T11:38:38.900Z,12.73
2022-10-17T11:41:09.349Z,11.35
2022-10-17T11:43:45.690Z,13.00
2022-10-17T11:46:19.254Z,11.07
2022-10-17T11:49:17.394Z,10.32
2022-10-17T11:52:43.986Z,10.65
2022-10-17T11:55:28.357Z,10.93
2022-10-17T11:58:25.025Z,10.60
2022-10-17T12:01:24.517Z,11.88
2022-10-17T12:04:08.589Z,11.85
2022-10-17T12:06:43.293Z,10.80
2022-10-17T12:09:20.250Z,10.98
2022-10-17T12:12:04.863Z,11.57
2022-10-17T12:14:46.965Z,11.90
2022-10-17T12:17:39.884Z,11.15
2022-10-17T12:20:25.932Z,11.85
2022-10-17T12:23:11.750Z,11.45
2022-10-17T12:25:54.980Z,11.98
2022-10-17T12:28:33.672Z,12.02
2022-10-17T12:31:10.451Z,11.60
2022-10-17T12:33:49.645Z,11.90
2022-10-17T12:36:23.825Z,12.48
2022-10-17T12:39:12.265Z,12.18
2022-10-17T12:41:40.258Z,11.02
2022-10-17T12:44:14.263Z,13.63
2022-10-17T12:47:04.297Z,13.02
2022-10-17T12:49:49.691Z,12.88
2022-10-17T12:52:44.154Z,11.85
2022-10-17T12:55:16.057Z,11.35
2022-10-17T12:57:58.949Z,12.32
2022-10-17T13:00:33.089Z,12.88
2022-10-17T13:03:17.096Z,13.13
2022-10-17T13:05:55.901Z,14.15
2022-10-17T13:08:24.818Z,12.43
2022-10-17T13:10:53.940Z,14.50
2022-10-17T13:13:35.829Z,14.07
2022-10-17T13:16:03.727Z,12.05
2022-10-17T13:18:31.886Z,11.73
2022-10-17T13:21:03.407Z,12.48
2022-10-17T13:23:36.792Z,12.07
2022-10-17T13:26:10.614Z,13.52
2022-10-17T13:28:39.646Z,13.45
2022-10-17T13:31:20.536Z,13.00
2022-10-17T13:33:48.331Z,15.60
2022-10-17T13:36:16.471Z,18.23
2022-10-17T13:38:44.805Z,17.75
2022-10-17T13:44:07.880Z,21.10
2022-10-17T13:46:38.483Z,18.45
2022-10-17T13:49:39.280Z,17.30
2022-10-17T13:52:14.958Z,16.40
2022-10-17T13:54:45.874Z,16.27
2022-10-17T13:57:20.529Z,19.05
2022-10-17T13:59:59.643Z,18.92
2022-10-17T14:02:30.383Z,16.65
2022-10-17T14:05:16.830Z,17.65
2022-10-17T14:08:10.873Z,15.48
2022-10-17T14:10:42.947Z,9.95
2022-10-17T14:13:23.933Z,9.93
2022-10-17T14:15:57.028Z,12.57
2022-10-17T14:18:34.857Z,12.63
2022-10-17T14:21:36.910Z,11.15
2022-10-17T14:24:12.384Z,10.77
2022-10-17T14:26:55.291Z,11.00
2022-10-17T14:29:49.970Z,10.88
2022-10-17T14:32:19.094Z,10.82
2022-10-17T14:34:47.582Z,10.77
2022-10-17T14:37:49.282Z,11.75
2022-10-17T14:40:20.551Z,10.50
2022-10-17T14:42:49.948Z,11.55
2022-10-17T14:45:38.816Z,11.50
2022-10-17T14:48:16.945Z,10.73
2022-10-17T14:51:11.998Z,10.40
2022-10-17T14:53:40.372Z,11.00
2022-10-17T14:56:26.379Z,11.25
2022-10-17T14:58:54.789Z,11.23
2022-10-17T15:01:22.894Z,11.73
2022-10-17T15:03:50.560Z,12.68
2022-10-17T15:06:32.294Z,13.23
2022-10-17T15:09:00.441Z,12.85
2022-10-17T15:11:28.503Z,11.52
2022-10-17T15:13:56.748Z,12.40
2022-10-17T15:16:31.736Z,12.23
2022-10-17T15:18:59.480Z,11.85
2022-10-17T15:21:47.284Z,10.77
2022-10-17T15:24:16.126Z,11.10
2022-10-17T15:26:43.822Z,12.23
2022-10-17T15:29:16.836Z,12.73
2022-10-17T15:31:45.658Z,14.35
2022-10-17T15:34:14.022Z,11.65
2022-10-17T15:36:48.324Z,11.80
2022-10-17T15:39:17.926Z,13.35
2022-10-17T15:41:48.260Z,13.77
2022-10-17T15:46:44.180Z,11.32
2022-10-17T15:49:18.289Z,12.10
2022-10-17T15:51:47.201Z,12.82
2022-10-17T15:54:17.409Z,13.35
2022-10-17T15:56:53.117Z,12.50
2022-10-17T15:59:26.180Z,14.23
2022-10-17T16:01:54.699Z,12.40
2022-10-17T16:04:24.341Z,13.18
2022-10-17T16:06:52.350Z,12.40
2022-10-17T16:09:20.078Z,12.52
2022-10-17T16:11:50.215Z,12.77
2022-10-17T16:14:18.375Z,12.52
2022-10-17T16:16:46.164Z,12.20
2022-10-17T16:19:14.451Z,13.82
2022-10-17T16:21:43.054Z,13.70
2022-10-17T16:24:12.636Z,14.80
2022-10-17T16:26:41.071Z,21.02
2022-10-17T16:29:10.793Z,22.67
2022-10-17T16:31:43.350Z,21.85
2022-10-17T16:34:13.713Z,16.75
2022-10-17T16:36:42.250Z,18.33
2022-10-17T16:39:11.018Z,30.95
2022-10-17T16:41:40.409Z,27.85
2022-10-17T16:44:11.899Z,21.05
2022-10-17T16:46:40.061Z,15.15
2022-10-17T16:49:08.632Z,14.35
2022-10-17T16:51:36.485Z,10.90
2022-10-17T16:54:04.885Z,17.33
2022-10-17T16:56:36.508Z,15.88
2022-10-17T16:59:04.753Z,16.08
2022-10-17T17:01:32.489Z,17.33
2022-10-17T17:04:00.587Z,13.02
2022-10-17T17:06:30.015Z,17.85
2022-10-17T17:08:58.291Z,19.67
2022-10-17T17:11:28.167Z,21.23
2022-10-17T17:13:57.897Z,23.40
2022-10-17T17:16:27.448Z,23.75
2022-10-17T17:19:17.429Z,28.95
2022-10-17T17:21:50.373Z,21.90
2022-10-17T17:24:21.186Z,26.05
2022-10-17T17:26:54.453Z,31.85
2022-10-17T17:29:24.032Z,44.70
2022-10-17T17:31:51.783Z,33.50
2022-10-17T17:34:20.144Z,36.28
2022-10-17T17:36:48.322Z,39.40
2022-10-17T17:39:18.018Z,38.03
2022-10-17T17:41:46.210Z,30.30
2022-10-17T17:44:16.799Z,36.75
2022-10-17T17:46:46.385Z,34.33
2022-10-17T17:49:14.807Z,39.58
2022-10-17T17:51:46.854Z,38.45
2022-10-17T17:54:15.479Z,43.22
2022-10-17T17:56:43.336Z,46.47
2022-10-17T17:59:14.199Z,46.72
2022-10-17T18:01:44.503Z,50.33
2022-10-17T18:04:12.662Z,43.15
2022-10-17T18:06:41.191Z,48.47
2022-10-17T18:09:09.782Z,48.88
2022-10-17T18:11:38.723Z,45.88
2022-10-17T18:14:11.054Z,47.28
2022-10-17T18:16:39.114Z,41.55
2022-10-17T18:19:09.251Z,37.25
2022-10-17T18:21:38.193Z,50.97
2022-10-17T18:24:06.536Z,52.80
2022-10-17T18:26:35.399Z,48.85
2022-10-17T18:29:04.001Z,35.10
2022-10-17T18:31:36.289Z,43.15
2022-10-17T18:34:05.615Z,42.80
2022-10-17T18:36:35.145Z,39.03
2022-10-17T18:41:32.540Z,42.38
2022-10-17T18:44:01.766Z,49.20
2022-10-17T18:46:42.998Z,48.63
2022-10-17T18:49:13.936Z,54.70
2022-10-17T18:51:42.826Z,64.15
2022-10-17T18:54:20.951Z,65.05
2022-10-17T18:56:55.017Z,62.83
2022-10-17T18:59:22.839Z,67.93
2022-10-17T19:01:50.746Z,76.38
2022-10-17T19:04:18.975Z,71.78
2022-10-17T19:06:46.900Z,60.80
2022-10-17T19:09:16.499Z,63.13
2022-10-17T19:11:44.613Z,65.97
2022-10-17T19:14:13.763Z,63.20
2022-10-17T19:16:45.483Z,71.55
2022-10-17T19:19:21.851Z,64.65
2022-10-17T19:21:51.175Z,63.17
2022-10-17T19:24:21.788Z,60.28
2022-10-17T19:26:51.288Z,59.13
2022-10-17T19:29:19.917Z,61.10
2022-10-17T19:31:49.061Z,59.65
2022-10-17T19:34:18.679Z,58.87
2022-10-17T19:36:49.719Z,62.65
2022-10-17T19:39:21.201Z,78.32
2022-10-17T19:41:48.986Z,66.47
2022-10-17T19:44:17.318Z,62.42
2022-10-17T19:46:47.130Z,63.35
2022-10-17T19:49:14.924Z,76.03
2022-10-17T19:51:43.117Z,80.10
2022-10-17T19:54:11.932Z,84.57
2022-10-17T19:56:40.945Z,84.47
2022-10-17T19:59:11.365Z,86.57
2022-10-17T20:01:40.289Z,80.72
2022-10-17T20:04:09.691Z,73.30
2022-10-17T20:06:39.664Z,76.80
2022-10-17T20:09:11.012Z,74.18
2022-10-17T20:11:42.014Z,75.18
2022-10-17T20:14:09.850Z,75.93
2022-10-17T20:16:40.416Z,71.75
2022-10-17T20:19:11.748Z,64.80
2022-10-17T20:21:40.105Z,65.57
2022-10-17T20:24:11.617Z,59.33
2022-10-17T20:26:41.052Z,45.08
2022-10-17T20:29:17.692Z,39.63
2022-10-17T20:31:47.377Z,36.97
2022-10-17T20:34:17.245Z,29.63
2022-10-17T20:36:45.244Z,32.88
2022-10-17T20:39:15.324Z,27.85
2022-10-17T20:41:44.137Z,36.17
2022-10-17T20:44:12.850Z,47.70
2022-10-17T20:46:48.813Z,42.83
2022-10-17T20:49:28.252Z,38.63
2022-10-17T20:51:56.301Z,32.92
2022-10-17T20:54:24.329Z,30.35
2022-10-17T20:56:52.356Z,33.00
2022-10-17T20:59:20.370Z,30.75
2022-10-17T21:01:48.534Z,31.95
2022-10-17T21:04:44.237Z,28.95
2022-10-17T21:07:04.414Z,27.85
2022-10-17T21:09:32.514Z,31.05
2022-10-17T21:14:34.201Z,34.92
2022-10-17T21:17:04.935Z,35.90
2022-10-17T21:19:33.467Z,34.63
2022-10-17T21:22:02.216Z,33.63
2022-10-17T21:24:30.620Z,33.50
2022-10-17T21:26:59.172Z,30.08
2022-10-17T21:29:26.978Z,28.73
2022-10-17T21:31:54.844Z,28.90
2022-10-17T21:34:26.722Z,34.53
2022-10-17T21:36:54.540Z,32.85
2022-10-17T21:39:24.972Z,32.22
2022-10-17T21:44:23.861Z,29.13
2022-10-17T21:46:52.284Z,28.20
2022-10-17T21:49:22.703Z,28.60
2022-10-17T21:54:19.732Z,27.33
2022-10-17T21:56:47.404Z,29.95
2022-10-17T21:59:15.417Z,28.42
2022-10-17T22:01:45.538Z,32.90
2022-10-17T22:04:19.607Z,32.40
2022-10-17T22:06:51.433Z,25.02
2022-10-17T22:09:22.890Z,28.73
2022-10-17T22:11:57.765Z,26.15
2022-10-17T22:14:27.205Z,24.85
2022-10-17T22:16:55.591Z,22.33
2022-10-17T22:19:25.870Z,21.65
2022-10-17T22:21:54.285Z,22.52
2022-10-17T22:24:22.681Z,23.88
2022-10-17T22:26:51.441Z,23.23
2022-10-17T22:29:19.203Z,24.05
2022-10-17T22:31:46.963Z,25.40
2022-10-17T22:34:16.247Z,24.73
2022-10-17T22:36:44.194Z,27.10
2022-10-17T22:39:12.408Z,24.17
2022-10-17T22:41:40.242Z,27.27
2022-10-17T22:44:08.110Z,25.15
2022-10-17T22:46:36.049Z,26.45
2022-10-17T22:49:04.419Z,26.52
2022-10-17T22:51:32.189Z,26.92
2022-10-17T22:54:00.725Z,26.40
2022-10-17T22:56:28.693Z,24.38
2022-10-17T22:58:56.555Z,22.85
2022-10-17T23:01:25.668Z,21.58
2022-10-17T23:03:53.538Z,23.23
2022-10-17T23:06:21.939Z,24.25
2022-10-17T23:08:50.288Z,21.25
2022-10-17T23:11:18.267Z,21.75
2022-10-17T23:13:45.971Z,19.90
2022-10-17T23:16:13.479Z,22.00
2022-10-17T23:18:41.250Z,21.45
2022-10-17T23:21:09.133Z,22.77
2022-10-17T23:23:37.299Z,24.83
2022-10-17T23:26:10.903Z,25.60
2022-10-17T23:28:39.497Z,24.40
2022-10-17T23:31:18.339Z,24.08
2022-10-17T23:33:47.990Z,24.02
2022-10-17T23:36:18.110Z,24.67
2022-10-17T23:38:46.974Z,22.58
2022-10-17T23:41:14.771Z,23.90
2022-10-17T23:43:43.444Z,24.88
2022-10-17T23:46:11.807Z,24.10
2022-10-17T23:48:40.156Z,21.40
2022-10-17T23:51:09.535Z,31.33
2022-10-17T23:53:38.447Z,23.45
2022-10-17T23:56:07.921Z,22.42
2022-10-17T23:58:35.953Z,23.50
